createdAt,value
2023-04-18T00:00:34.894Z,94.08
2023-04-18T00:01:34.897Z,94.28
2023-04-18T00:02:35.013Z,94.18
2023-04-18T00:03:35.030Z,94.18
2023-04-18T00:04:34.902Z,94.28
2023-04-18T00:05:34.876Z,94.38
2023-04-18T00:06:34.807Z,94.28
2023-04-18T00:07:34.792Z,94.18
2023-04-18T00:08:34.831Z,94.18
2023-04-18T00:09:34.852Z,94.28
2023-04-18T00:10:34.750Z,94.18
2023-04-18T00:11:34.748Z,94.38
2023-04-18T00:12:34.738Z,94.18
2023-04-18T00:13:34.717Z,94.08
2023-04-18T00:14:34.702Z,94.08
2023-04-18T00:15:34.696Z,93.98
2023-04-18T00:16:34.695Z,94.18
2023-04-18T00:17:34.695Z,94.28
2023-04-18T00:18:34.642Z,94.18
2023-04-18T00:19:34.629Z,94.18
2023-04-18T00:20:34.624Z,94.18
2023-04-18T00:21:34.609Z,94.38
2023-04-18T00:22:34.598Z,94.49
2023-04-18T00:23:34.582Z,94.49
2023-04-18T00:24:34.564Z,94.80
2023-04-18T00:25:34.577Z,94.70
2023-04-18T00:26:34.532Z,94.80
2023-04-18T00:27:34.521Z,94.70
2023-04-18T00:28:34.515Z,94.59
2023-04-18T00:29:34.500Z,94.70
2023-04-18T00:30:34.517Z,94.49
2023-04-18T00:31:34.465Z,94.70
2023-04-18T00:32:34.494Z,95.00
2023-04-18T00:33:34.449Z,94.90
2023-04-18T00:34:34.434Z,95.10
2023-04-18T00:35:34.435Z,95.00
2023-04-18T00:36:34.408Z,94.95
2023-04-18T00:37:34.423Z,95.05
2023-04-18T00:38:34.379Z,95.36
2023-04-18T00:39:34.401Z,95.46
2023-04-18T00:40:34.358Z,95.67
2023-04-18T00:41:34.352Z,95.56
2023-04-18T00:42:34.321Z,95.77
2023-04-18T00:43:42.324Z,95.67
2023-04-18T00:44:41.812Z,95.98
2023-04-18T00:45:34.301Z,96.39
2023-04-18T00:46:34.322Z,96.28
2023-04-18T00:47:34.270Z,96.39
2023-04-18T00:48:34.262Z,96.39
2023-04-18T00:49:34.238Z,96.59
2023-04-18T00:50:34.230Z,96.91
2023-04-18T00:51:34.211Z,96.91
2023-04-18T00:52:34.189Z,96.91
2023-04-18T00:53:34.181Z,97.01
2023-04-18T00:54:34.164Z,97.01
2023-04-18T00:55:34.170Z,97.01
2023-04-18T00:56:34.137Z,97.01
2023-04-18T00:57:34.131Z,97.21
2023-04-18T00:58:34.107Z,97.21
2023-04-18T00:59:34.091Z,97.11
2023-04-18T01:00:34.101Z,97.21
2023-04-18T01:01:34.155Z,97.31
2023-04-18T01:02:34.275Z,97.21
2023-04-18T01:03:34.260Z,97.31
2023-04-18T01:04:34.071Z,97.31
2023-04-18T01:05:34.027Z,97.31
2023-04-18T01:06:34.009Z,97.42
2023-04-18T01:07:33.996Z,97.63
2023-04-18T01:08:33.982Z,97.83
2023-04-18T01:09:33.973Z,97.83
2023-04-18T01:10:33.976Z,97.88
2023-04-18T01:11:33.936Z,98.14
2023-04-18T01:12:33.923Z,98.24
2023-04-18T01:13:33.912Z,98.39
2023-04-18T01:14:33.910Z,98.60
2023-04-18T01:15:33.911Z,98.91
2023-04-18T01:16:33.888Z,99.11
2023-04-18T01:17:33.873Z,99.43
2023-04-18T01:18:33.848Z,99.73
2023-04-18T01:19:33.846Z,99.99
2023-04-18T01:20:33.836Z,99.99
2023-04-18T01:21:33.944Z,99.99
2023-04-18T01:22:33.804Z,99.99
2023-04-18T01:23:34.029Z,99.99
2023-04-18T01:24:33.773Z,99.99
2023-04-18T01:25:33.762Z,99.99
2023-04-18T01:26:33.747Z,99.99
2023-04-18T01:27:33.719Z,99.99
2023-04-18T01:28:33.718Z,99.99
2023-04-18T01:29:33.700Z,99.99
2023-04-18T01:30:33.709Z,99.99
2023-04-18T01:31:33.741Z,99.99
2023-04-18T01:32:33.718Z,99.99
2023-04-18T01:33:33.664Z,99.99
2023-04-18T01:34:33.652Z,99.99
2023-04-18T01:35:33.656Z,99.99
2023-04-18T01:36:33.659Z,99.99
2023-04-18T01:37:33.647Z,99.99
2023-04-18T01:38:41.115Z,99.99
2023-04-18T01:39:41.120Z,99.99
2023-04-18T01:40:42.302Z,99.99
2023-04-18T01:41:41.056Z,99.99
2023-04-18T01:42:33.533Z,99.99
2023-04-18T01:43:33.584Z,99.99
2023-04-18T01:44:33.545Z,99.99
2023-04-18T01:45:33.517Z,99.99
2023-04-18T01:46:33.596Z,99.99
2023-04-18T01:47:33.514Z,99.99
2023-04-18T01:48:33.485Z,99.99
2023-04-18T01:49:33.454Z,99.99
2023-04-18T01:50:33.507Z,99.99
2023-04-18T01:51:33.432Z,99.99
2023-04-18T01:52:33.406Z,99.99
2023-04-18T01:53:33.412Z,99.99
2023-04-18T01:54:33.389Z,99.99
2023-04-18T01:55:33.374Z,99.99
2023-04-18T01:56:33.364Z,99.99
2023-04-18T01:57:33.354Z,99.99
2023-04-18T01:58:40.851Z,99.99
2023-04-18T01:59:40.850Z,99.99
2023-04-18T02:00:33.356Z,99.99
2023-04-18T02:01:33.305Z,99.99
2023-04-18T02:02:33.510Z,99.99
2023-04-18T02:03:33.465Z,99.99
2023-04-18T02:04:33.317Z,99.99
2023-04-18T02:05:33.290Z,99.99
2023-04-18T02:06:33.223Z,99.99
2023-04-18T02:07:33.351Z,99.99
2023-04-18T02:08:33.244Z,99.99
2023-04-18T02:09:33.197Z,99.99
2023-04-18T02:10:33.200Z,99.99
2023-04-18T02:11:33.162Z,99.99
2023-04-18T02:12:33.150Z,99.99
2023-04-18T02:13:33.140Z,99.99
2023-04-18T02:14:33.144Z,99.99
2023-04-18T02:15:33.118Z,99.99
2023-04-18T02:16:33.129Z,99.99
2023-04-18T02:17:33.148Z,99.99
2023-04-18T02:18:33.063Z,99.99
2023-04-18T02:19:33.043Z,99.99
2023-04-18T02:20:33.047Z,99.99
2023-04-18T02:21:33.016Z,99.99
2023-04-18T02:22:33.008Z,99.99
2023-04-18T02:23:32.993Z,99.99
2023-04-18T02:24:33.009Z,99.99
2023-04-18T02:25:32.973Z,99.99
2023-04-18T02:26:32.970Z,99.99
2023-04-18T02:27:32.949Z,99.99
2023-04-18T02:28:32.947Z,99.99
2023-04-18T02:29:32.918Z,99.99
2023-04-18T02:30:32.912Z,99.99
2023-04-18T02:31:32.952Z,99.99
2023-04-18T02:32:32.938Z,99.99
2023-04-18T02:33:32.967Z,99.99
2023-04-18T02:34:32.849Z,99.99
2023-04-18T02:35:32.843Z,99.99
2023-04-18T02:36:33.865Z,99.99
2023-04-18T02:37:32.820Z,99.99
2023-04-18T02:38:32.800Z,99.99
2023-04-18T02:39:32.786Z,99.99
2023-04-18T02:40:32.784Z,99.99
2023-04-18T02:41:32.766Z,99.99
2023-04-18T02:42:32.755Z,99.99
2023-04-18T02:43:32.733Z,99.99
2023-04-18T02:44:32.718Z,99.99
2023-04-18T02:45:32.770Z,99.99
2023-04-18T02:46:32.692Z,99.99
2023-04-18T02:47:40.479Z,99.99
2023-04-18T02:48:33.687Z,99.99
2023-04-18T02:49:32.653Z,99.99
2023-04-18T02:50:32.656Z,99.99
2023-04-18T02:51:32.624Z,99.99
2023-04-18T02:52:32.610Z,99.99
2023-04-18T02:53:32.608Z,99.99
2023-04-18T02:54:32.584Z,99.99
2023-04-18T02:55:32.570Z,99.99
2023-04-18T02:56:32.560Z,99.99
2023-04-18T02:57:32.544Z,99.99
2023-04-18T02:58:32.583Z,99.99
2023-04-18T02:59:32.515Z,99.99
2023-04-18T03:00:32.516Z,99.99
2023-04-18T03:01:32.505Z,99.99
2023-04-18T03:02:32.619Z,99.99
2023-04-18T03:03:32.506Z,99.99
2023-04-18T03:04:32.487Z,99.99
2023-04-18T03:05:32.447Z,99.99
2023-04-18T03:06:32.420Z,99.99
2023-04-18T03:07:32.414Z,99.99
2023-04-18T03:08:32.398Z,99.99
2023-04-18T03:09:32.382Z,99.99
2023-04-18T03:10:32.435Z,99.99
2023-04-18T03:11:32.361Z,99.99
2023-04-18T03:12:39.352Z,99.99
2023-04-18T03:13:40.349Z,99.99
2023-04-18T03:14:32.331Z,99.99
2023-04-18T03:15:32.326Z,99.99
2023-04-18T03:16:32.301Z,99.99
2023-04-18T03:17:32.334Z,99.99
2023-04-18T03:18:32.275Z,99.99
2023-04-18T03:19:32.258Z,99.99
2023-04-18T03:20:32.260Z,99.99
2023-04-18T03:21:32.217Z,99.99
2023-04-18T03:22:32.241Z,99.99
2023-04-18T03:23:32.199Z,99.99
2023-04-18T03:24:32.194Z,99.99
2023-04-18T03:25:32.181Z,99.99
2023-04-18T03:26:32.162Z,99.99
2023-04-18T03:27:32.141Z,99.99
2023-04-18T03:28:32.140Z,99.99
2023-04-18T03:29:32.119Z,99.99
2023-04-18T03:30:32.121Z,99.99
2023-04-18T03:31:32.123Z,99.99
2023-04-18T03:32:32.113Z,99.99
2023-04-18T03:33:32.074Z,99.99
2023-04-18T03:34:32.061Z,99.99
2023-04-18T03:35:32.050Z,99.99
2023-04-18T03:36:32.026Z,99.99
2023-04-18T03:37:32.011Z,99.99
2023-04-18T03:38:32.000Z,99.99
2023-04-18T03:39:31.985Z,99.99
2023-04-18T03:40:31.997Z,99.99
2023-04-18T03:41:31.958Z,99.99
2023-04-18T03:42:31.950Z,99.99
2023-04-18T03:43:31.930Z,99.99
2023-04-18T03:44:31.921Z,99.99
2023-04-18T03:45:31.917Z,99.99
2023-04-18T03:46:31.918Z,99.99
2023-04-18T03:47:31.922Z,99.99
2023-04-18T03:48:31.867Z,99.99
2023-04-18T03:49:31.895Z,99.99
2023-04-18T03:50:31.855Z,99.99
2023-04-18T03:51:31.821Z,99.99
2023-04-18T03:52:31.817Z,99.99
2023-04-18T03:53:31.800Z,99.99
2023-04-18T03:54:31.790Z,99.99
2023-04-18T03:55:31.788Z,99.99
2023-04-18T03:56:31.768Z,99.99
2023-04-18T03:57:31.757Z,99.99
2023-04-18T03:58:31.742Z,99.99
2023-04-18T03:59:31.729Z,99.99
2023-04-18T04:00:31.743Z,99.99
2023-04-18T04:01:31.739Z,99.99
2023-04-18T04:02:31.791Z,99.99
2023-04-18T04:03:31.830Z,99.99
2023-04-18T04:04:31.726Z,99.99
2023-04-18T04:05:31.644Z,99.99
2023-04-18T04:06:31.639Z,99.99
2023-04-18T04:07:31.624Z,99.99
2023-04-18T04:08:31.614Z,99.99
2023-04-18T04:09:31.611Z,99.99
2023-04-18T04:10:31.589Z,99.99
2023-04-18T04:11:31.582Z,99.99
2023-04-18T04:12:31.563Z,99.99
2023-04-18T04:13:31.545Z,99.99
2023-04-18T04:14:31.530Z,99.99
2023-04-18T04:15:31.517Z,99.99
2023-04-18T04:16:31.559Z,99.99
2023-04-18T04:17:31.542Z,99.99
2023-04-18T04:18:31.503Z,99.99
2023-04-18T04:19:31.468Z,99.99
2023-04-18T04:20:31.458Z,99.99
2023-04-18T04:21:31.447Z,99.99
2023-04-18T04:22:31.437Z,99.99
2023-04-18T04:23:31.411Z,99.99
2023-04-18T04:24:38.403Z,99.99
2023-04-18T04:25:31.382Z,99.99
2023-04-18T04:26:31.379Z,99.99
2023-04-18T04:27:31.357Z,99.99
2023-04-18T04:28:31.351Z,99.99
2023-04-18T04:29:31.326Z,99.99
2023-04-18T04:30:31.324Z,99.99
2023-04-18T04:31:31.350Z,99.99
2023-04-18T04:32:31.334Z,99.99
2023-04-18T04:33:31.279Z,99.99
2023-04-18T04:34:31.290Z,99.99
2023-04-18T04:35:31.244Z,99.99
2023-04-18T04:36:31.251Z,99.99
2023-04-18T04:37:31.217Z,99.99
2023-04-18T04:38:31.317Z,99.99
2023-04-18T04:39:31.193Z,99.99
2023-04-18T04:40:31.180Z,99.99
2023-04-18T04:41:31.181Z,99.99
2023-04-18T04:42:31.163Z,99.99
2023-04-18T04:43:31.140Z,99.99
2023-04-18T04:44:31.151Z,99.99
2023-04-18T04:45:31.171Z,99.99
2023-04-18T04:46:31.113Z,99.99
2023-04-18T04:47:31.193Z,99.99
2023-04-18T04:48:31.085Z,99.99
2023-04-18T04:49:31.061Z,99.99
2023-04-18T04:50:31.054Z,99.99
2023-04-18T04:51:31.040Z,99.99
2023-04-18T04:52:31.024Z,99.99
2023-04-18T04:53:31.006Z,99.99
2023-04-18T04:54:30.997Z,99.99
2023-04-18T04:55:30.980Z,99.99
2023-04-18T04:56:30.987Z,99.99
2023-04-18T04:57:30.977Z,99.99
2023-04-18T04:58:30.966Z,99.99
2023-04-18T04:59:30.928Z,99.99
2023-04-18T05:00:30.911Z,99.99
2023-04-18T05:01:30.969Z,99.99
2023-04-18T05:02:31.063Z,99.99
2023-04-18T05:03:31.006Z,99.99
2023-04-18T05:04:30.987Z,99.99
2023-04-18T05:05:30.862Z,99.99
2023-04-18T05:06:30.856Z,99.99
2023-04-18T05:07:30.833Z,99.99
2023-04-18T05:08:30.821Z,99.99
2023-04-18T05:09:30.799Z,99.99
2023-04-18T05:10:30.784Z,99.99
2023-04-18T05:11:30.808Z,99.99
2023-04-18T05:12:30.771Z,99.99
2023-04-18T05:13:30.757Z,99.99
2023-04-18T05:14:30.733Z,99.99
2023-04-18T05:15:30.741Z,99.99
2023-04-18T05:16:30.753Z,99.88
2023-04-18T05:17:30.718Z,99.99
2023-04-18T05:18:32.053Z,99.78
2023-04-18T05:19:30.660Z,99.78
2023-04-18T05:20:30.662Z,99.99
2023-04-18T05:21:30.637Z,99.47
2023-04-18T05:22:30.625Z,99.68
2023-04-18T05:23:30.639Z,99.57
2023-04-18T05:24:30.592Z,99.57
2023-04-18T05:25:30.604Z,99.68
2023-04-18T05:26:30.582Z,99.43
2023-04-18T05:27:30.563Z,99.68
2023-04-18T05:28:30.543Z,99.63
2023-04-18T05:29:30.539Z,99.73
2023-04-18T05:30:30.526Z,99.63
2023-04-18T05:31:30.705Z,99.52
2023-04-18T05:32:30.559Z,99.32
2023-04-18T05:33:30.482Z,99.37
2023-04-18T05:34:30.459Z,99.47
2023-04-18T05:35:30.512Z,99.37
2023-04-18T05:36:30.439Z,99.37
2023-04-18T05:37:38.961Z,99.16
2023-04-18T05:38:30.424Z,99.37
2023-04-18T05:39:30.428Z,99.37
2023-04-18T05:40:30.437Z,99.57
2023-04-18T05:41:30.392Z,99.26
2023-04-18T05:42:30.408Z,99.52
2023-04-18T05:43:30.384Z,99.52
2023-04-18T05:44:30.349Z,99.43
2023-04-18T05:45:30.361Z,99.52
2023-04-18T05:46:30.381Z,99.11
2023-04-18T05:47:30.400Z,99.01
2023-04-18T05:48:30.291Z,98.91
2023-04-18T05:49:30.280Z,99.01
2023-04-18T05:50:30.271Z,98.91
2023-04-18T05:51:30.277Z,98.91
2023-04-18T05:52:30.237Z,98.50
2023-04-18T05:53:30.228Z,98.39
2023-04-18T05:54:30.213Z,98.60
2023-04-18T05:55:30.217Z,98.08
2023-04-18T05:56:30.181Z,98.29
2023-04-18T05:57:30.173Z,98.66
2023-04-18T05:58:30.148Z,98.14
2023-04-18T05:59:30.151Z,98.03
2023-04-18T06:00:30.144Z,97.83
2023-04-18T06:01:30.127Z,97.73
2023-04-18T06:02:30.218Z,97.83
2023-04-18T06:03:30.197Z,97.83
2023-04-18T06:04:30.308Z,97.63
2023-04-18T06:05:30.295Z,97.52
2023-04-18T06:06:30.053Z,97.42
2023-04-18T06:07:30.050Z,97.63
2023-04-18T06:08:30.017Z,97.83
2023-04-18T06:09:30.031Z,97.31
2023-04-18T06:10:30.005Z,97.11
2023-04-18T06:11:29.990Z,97.42
2023-04-18T06:12:29.967Z,97.06
2023-04-18T06:13:29.969Z,96.75
2023-04-18T06:14:29.940Z,96.55
2023-04-18T06:15:29.954Z,96.66
2023-04-18T06:16:30.010Z,96.75
2023-04-18T06:17:29.940Z,96.20
2023-04-18T06:18:29.886Z,96.09
2023-04-18T06:19:29.881Z,95.78
2023-04-18T06:20:29.868Z,95.48
2023-04-18T06:21:29.871Z,95.58
2023-04-18T06:22:29.840Z,95.27
2023-04-18T06:23:29.838Z,94.55
2023-04-18T06:24:31.284Z,94.65
2023-04-18T06:25:29.820Z,94.76
2023-04-18T06:26:29.793Z,95.43
2023-04-18T06:27:31.906Z,95.02
2023-04-18T06:28:29.770Z,94.40
2023-04-18T06:29:29.758Z,93.99
2023-04-18T06:30:29.897Z,93.88
2023-04-18T06:31:29.781Z,94.30
2023-04-18T06:32:29.756Z,93.54
2023-04-18T06:33:29.711Z,93.12
2023-04-18T06:34:29.694Z,93.54
2023-04-18T06:35:29.693Z,92.82
2023-04-18T06:36:29.669Z,92.30
2023-04-18T06:37:29.672Z,92.61
2023-04-18T06:38:29.640Z,93.12
2023-04-18T06:39:29.664Z,92.10
2023-04-18T06:40:29.695Z,92.20
2023-04-18T06:41:29.617Z,92.46
2023-04-18T06:42:29.609Z,92.16
2023-04-18T06:43:29.608Z,92.63
2023-04-18T06:44:29.586Z,90.94
2023-04-18T06:45:29.575Z,91.14
2023-04-18T06:46:29.688Z,90.32
2023-04-18T06:47:29.600Z,90.42
2023-04-18T06:48:29.511Z,89.50
2023-04-18T06:49:29.537Z,89.70
2023-04-18T06:50:29.529Z,90.01
2023-04-18T06:51:29.481Z,89.09
2023-04-18T06:52:29.449Z,89.23
2023-04-18T06:53:36.944Z,90.47
2023-04-18T06:54:37.959Z,90.06
2023-04-18T06:55:36.928Z,89.75
2023-04-18T06:56:38.096Z,90.57
2023-04-18T06:57:36.892Z,89.75
2023-04-18T06:58:36.882Z,89.64
2023-04-18T06:59:29.367Z,89.23
2023-04-18T07:00:29.483Z,89.64
2023-04-18T07:01:29.396Z,89.44
2023-04-18T07:02:29.382Z,88.92
2023-04-18T07:03:29.433Z,89.34
2023-04-18T07:04:29.338Z,88.82
2023-04-18T07:05:29.297Z,90.36
2023-04-18T07:06:29.295Z,89.23
2023-04-18T07:07:29.258Z,89.29
2023-04-18T07:08:29.272Z,88.06
2023-04-18T07:09:29.244Z,88.78
2023-04-18T07:10:29.311Z,89.15
2023-04-18T07:11:29.259Z,88.53
2023-04-18T07:12:29.207Z,88.23
2023-04-18T07:13:29.223Z,88.02
2023-04-18T07:14:29.208Z,88.64
2023-04-18T07:15:29.161Z,89.56
2023-04-18T07:16:29.198Z,88.70
2023-04-18T07:17:29.189Z,88.39
2023-04-18T07:18:37.635Z,86.75
2023-04-18T07:19:30.110Z,86.65
2023-04-18T07:20:29.136Z,87.10
2023-04-18T07:21:29.077Z,87.20
2023-04-18T07:22:29.078Z,87.40
2023-04-18T07:23:29.077Z,88.12
2023-04-18T07:24:29.038Z,87.51
2023-04-18T07:25:29.052Z,88.57
2023-04-18T07:26:29.018Z,87.65
2023-04-18T07:27:29.011Z,88.51
2023-04-18T07:28:28.976Z,88.20
2023-04-18T07:29:29.048Z,88.72
2023-04-18T07:30:28.966Z,87.69
2023-04-18T07:31:28.988Z,87.75
2023-04-18T07:32:28.956Z,87.75
2023-04-18T07:33:28.913Z,87.55
2023-04-18T07:34:28.890Z,87.24
2023-04-18T07:35:28.912Z,87.13
2023-04-18T07:36:28.936Z,86.52
2023-04-18T07:37:28.869Z,87.34
2023-04-18T07:38:28.846Z,87.13
2023-04-18T07:39:28.838Z,86.99
2023-04-18T07:40:28.805Z,86.58
2023-04-18T07:41:28.892Z,85.76
2023-04-18T07:42:28.782Z,85.25
2023-04-18T07:43:28.777Z,85.55
2023-04-18T07:44:28.759Z,85.97
2023-04-18T07:45:28.752Z,86.99
2023-04-18T07:46:28.798Z,86.27
2023-04-18T07:47:30.288Z,86.03
2023-04-18T07:48:28.708Z,85.52
2023-04-18T07:49:28.687Z,85.99
2023-04-18T07:50:28.686Z,85.06
2023-04-18T07:51:28.685Z,85.58
2023-04-18T07:52:28.700Z,85.47
2023-04-18T07:53:28.643Z,86.24
2023-04-18T07:54:28.646Z,87.22
2023-04-18T07:55:28.634Z,85.89
2023-04-18T07:56:28.648Z,85.47
2023-04-18T07:57:28.612Z,85.99
2023-04-18T07:58:28.574Z,85.85
2023-04-18T07:59:28.593Z,85.85
2023-04-18T08:00:28.554Z,85.23
2023-04-18T08:01:28.604Z,85.91
2023-04-18T08:02:28.748Z,85.30
2023-04-18T08:03:28.750Z,84.27
2023-04-18T08:04:30.103Z,84.27
2023-04-18T08:05:28.513Z,83.96
2023-04-18T08:06:28.534Z,83.96
2023-04-18T08:07:28.471Z,83.76
2023-04-18T08:08:28.445Z,84.27
2023-04-18T08:09:28.427Z,84.47
2023-04-18T08:10:28.507Z,84.64
2023-04-18T08:11:28.426Z,83.41
2023-04-18T08:12:28.379Z,83.00
2023-04-18T08:13:28.397Z,83.34
2023-04-18T08:14:28.382Z,83.04
2023-04-18T08:15:28.355Z,83.82
2023-04-18T08:16:28.388Z,83.20
2023-04-18T08:17:28.357Z,83.61
2023-04-18T08:18:28.304Z,83.20
2023-04-18T08:19:28.320Z,82.49
2023-04-18T08:20:28.270Z,83.51
2023-04-18T08:21:28.276Z,82.76
2023-04-18T08:22:28.259Z,81.73
2023-04-18T08:23:28.246Z,82.45
2023-04-18T08:24:28.231Z,82.04
2023-04-18T08:25:28.214Z,81.73
2023-04-18T08:26:28.216Z,81.43
2023-04-18T08:27:28.194Z,81.18
2023-04-18T08:28:28.188Z,80.98
2023-04-18T08:29:28.218Z,81.18
2023-04-18T08:30:28.175Z,79.89
2023-04-18T08:31:28.190Z,80.67
2023-04-18T08:32:28.157Z,80.26
2023-04-18T08:33:28.103Z,80.46
2023-04-18T08:34:28.107Z,81.18
2023-04-18T08:35:28.116Z,80.05
2023-04-18T08:36:28.078Z,79.96
2023-04-18T08:37:28.103Z,80.46
2023-04-18T08:38:28.044Z,81.70
2023-04-18T08:39:28.066Z,80.33
2023-04-18T08:40:28.028Z,78.96
2023-04-18T08:41:28.013Z,79.16
2023-04-18T08:42:27.992Z,78.34
2023-04-18T08:43:27.969Z,78.65
2023-04-18T08:44:27.960Z,79.64
2023-04-18T08:45:27.951Z,79.23
2023-04-18T08:46:27.968Z,77.49
2023-04-18T08:47:27.950Z,76.98
2023-04-18T08:48:27.897Z,77.59
2023-04-18T08:49:27.889Z,77.45
2023-04-18T08:50:27.905Z,78.34
2023-04-18T08:51:27.865Z,78.23
2023-04-18T08:52:27.839Z,77.93
2023-04-18T08:53:27.830Z,76.46
2023-04-18T08:54:27.819Z,74.52
2023-04-18T08:55:27.808Z,75.65
2023-04-18T08:56:27.815Z,75.00
2023-04-18T08:57:27.781Z,74.69
2023-04-18T08:58:27.770Z,74.59
2023-04-18T08:59:27.745Z,75.16
2023-04-18T09:00:27.732Z,74.86
2023-04-18T09:01:27.742Z,74.55
2023-04-18T09:02:27.760Z,75.16
2023-04-18T09:03:27.727Z,74.52
2023-04-18T09:04:27.714Z,72.41
2023-04-18T09:05:27.685Z,72.96
2023-04-18T09:06:27.917Z,75.10
2023-04-18T09:07:27.630Z,73.57
2023-04-18T09:08:27.628Z,73.88
2023-04-18T09:09:27.613Z,74.90
2023-04-18T09:10:27.609Z,73.60
2023-04-18T09:11:27.600Z,74.25
2023-04-18T09:12:27.592Z,74.46
2023-04-18T09:13:27.561Z,75.68
2023-04-18T09:14:27.549Z,75.89
2023-04-18T09:15:27.534Z,75.65
2023-04-18T09:16:27.889Z,75.95
2023-04-18T09:17:27.565Z,74.18
2023-04-18T09:18:27.497Z,74.69
2023-04-18T09:19:27.482Z,73.57
2023-04-18T09:20:27.467Z,73.36
2023-04-18T09:21:27.491Z,74.32
2023-04-18T09:22:27.450Z,75.31
2023-04-18T09:23:27.484Z,74.73
2023-04-18T09:24:27.472Z,74.25
2023-04-18T09:25:27.505Z,76.26
2023-04-18T09:26:27.504Z,74.25
2023-04-18T09:27:27.444Z,75.27
2023-04-18T09:28:27.381Z,75.48
2023-04-18T09:29:27.348Z,74.52
2023-04-18T09:30:27.344Z,75.48
2023-04-18T09:31:27.342Z,76.81
2023-04-18T09:32:27.475Z,77.11
2023-04-18T09:33:27.299Z,75.48
2023-04-18T09:34:27.294Z,77.01
2023-04-18T09:35:27.264Z,76.70
2023-04-18T09:36:27.610Z,76.50
2023-04-18T09:37:27.271Z,75.58
2023-04-18T09:38:27.231Z,75.10
2023-04-18T09:39:27.217Z,76.53
2023-04-18T09:40:27.209Z,75.82
2023-04-18T09:41:27.206Z,75.71
2023-04-18T09:42:28.898Z,76.06
2023-04-18T09:43:27.161Z,76.16
2023-04-18T09:44:27.153Z,76.74
2023-04-18T09:45:27.181Z,75.41
2023-04-18T09:46:27.295Z,75.62
2023-04-18T09:47:27.139Z,77.72
2023-04-18T09:48:27.098Z,76.19
2023-04-18T09:49:27.089Z,75.07
2023-04-18T09:50:27.070Z,75.48
2023-04-18T09:51:27.055Z,75.99
2023-04-18T09:52:27.058Z,75.58
2023-04-18T09:53:27.032Z,75.89
2023-04-18T09:54:27.040Z,75.82
2023-04-18T09:55:27.003Z,77.76
2023-04-18T09:56:26.990Z,76.33
2023-04-18T09:57:27.009Z,76.64
2023-04-18T09:58:26.981Z,76.43
2023-04-18T09:59:26.967Z,76.78
2023-04-18T10:00:26.956Z,78.00
2023-04-18T10:01:26.942Z,78.31
2023-04-18T10:02:27.025Z,76.16
2023-04-18T10:03:26.946Z,76.67
2023-04-18T10:04:26.934Z,76.37
2023-04-18T10:05:26.949Z,75.45
2023-04-18T10:06:26.966Z,76.06
2023-04-18T10:07:26.898Z,76.06
2023-04-18T10:08:26.836Z,76.06
2023-04-18T10:09:26.812Z,76.64
2023-04-18T10:10:26.814Z,75.55
2023-04-18T10:11:26.797Z,76.09
2023-04-18T10:12:26.796Z,77.01
2023-04-18T10:13:26.762Z,76.91
2023-04-18T10:14:28.405Z,78.11
2023-04-18T10:15:26.876Z,76.57
2023-04-18T10:16:26.778Z,75.00
2023-04-18T10:18:26.780Z,76.26
2023-04-18T10:19:26.685Z,76.37
2023-04-18T10:20:26.674Z,75.71
2023-04-18T10:21:26.662Z,75.04
2023-04-18T10:22:26.654Z,76.16
2023-04-18T10:23:28.101Z,76.50
2023-04-18T10:24:26.616Z,75.89
2023-04-18T10:25:26.600Z,77.01
2023-04-18T10:26:26.586Z,77.01
2023-04-18T10:27:26.582Z,78.14
2023-04-18T10:28:26.561Z,77.01
2023-04-18T10:29:26.545Z,77.42
2023-04-18T10:30:26.541Z,77.59
2023-04-18T10:31:26.575Z,77.29
2023-04-18T10:32:26.526Z,77.12
2023-04-18T10:33:30.880Z,77.94
2023-04-18T10:34:27.496Z,77.83
2023-04-18T10:35:26.462Z,77.42
2023-04-18T10:36:26.455Z,77.59
2023-04-18T10:37:26.456Z,78.41
2023-04-18T10:38:26.434Z,78.11
2023-04-18T10:39:26.420Z,76.78
2023-04-18T10:40:26.407Z,76.40
2023-04-18T10:41:26.396Z,77.73
2023-04-18T10:42:26.414Z,77.39
2023-04-18T10:43:26.373Z,76.16
2023-04-18T10:44:26.354Z,77.08
2023-04-18T10:45:26.335Z,76.78
2023-04-18T10:46:32.389Z,77.29
2023-04-18T10:47:27.426Z,76.16
2023-04-18T10:48:26.292Z,77.15
2023-04-18T10:49:27.852Z,76.43
2023-04-18T10:50:26.275Z,77.35
2023-04-18T10:51:26.258Z,75.65
2023-04-18T10:52:26.262Z,77.39
2023-04-18T10:53:26.234Z,76.67
2023-04-18T10:54:26.233Z,75.96
2023-04-18T10:55:26.246Z,75.79
2023-04-18T10:56:26.220Z,76.50
2023-04-18T10:57:26.192Z,77.63
2023-04-18T10:58:26.173Z,76.71
2023-04-18T10:59:26.150Z,76.71
2023-04-18T11:00:26.157Z,76.30
2023-04-18T11:01:27.490Z,76.40
2023-04-18T11:02:26.273Z,76.71
2023-04-18T11:03:26.205Z,77.49
2023-04-18T11:04:26.158Z,76.88
2023-04-18T11:05:26.122Z,76.23
2023-04-18T11:06:26.070Z,76.33
2023-04-18T11:07:26.455Z,75.51
2023-04-18T11:08:26.040Z,74.39
2023-04-18T11:09:26.024Z,74.63
2023-04-18T11:10:26.011Z,75.21
2023-04-18T11:11:25.995Z,75.71
2023-04-18T11:12:25.994Z,75.62
2023-04-18T11:13:25.966Z,76.12
2023-04-18T11:14:25.952Z,76.33
2023-04-18T11:15:25.972Z,75.41
2023-04-18T11:16:25.973Z,75.82
2023-04-18T11:17:25.944Z,75.41
2023-04-18T11:18:25.909Z,75.31
2023-04-18T11:19:25.896Z,75.51
2023-04-18T11:20:25.878Z,76.78
2023-04-18T11:21:25.868Z,76.53
2023-04-18T11:22:25.898Z,77.04
2023-04-18T11:23:25.848Z,77.45
2023-04-18T11:24:25.824Z,76.12
2023-04-18T11:25:25.840Z,76.40
2023-04-18T11:26:25.837Z,75.48
2023-04-18T11:27:25.810Z,75.68
2023-04-18T11:28:25.790Z,76.09
2023-04-18T11:29:25.754Z,77.11
2023-04-18T11:30:25.744Z,74.56
2023-04-18T11:31:25.776Z,74.05
2023-04-18T11:32:25.828Z,74.87
2023-04-18T11:33:25.704Z,74.66
2023-04-18T11:34:25.694Z,74.46
2023-04-18T11:35:25.680Z,74.25
2023-04-18T11:36:25.808Z,73.64
2023-04-18T11:37:25.660Z,74.32
2023-04-18T11:38:25.648Z,75.34
2023-04-18T11:39:25.629Z,73.30
2023-04-18T11:40:25.611Z,74.22
2023-04-18T11:41:25.595Z,73.27
2023-04-18T11:42:25.593Z,73.27
2023-04-18T11:43:25.632Z,73.16
2023-04-18T11:44:25.557Z,74.45
2023-04-18T11:45:25.540Z,74.25
2023-04-18T11:46:25.589Z,72.92
2023-04-18T11:47:25.544Z,72.82
2023-04-18T11:48:25.525Z,71.91
2023-04-18T11:49:25.491Z,73.33
2023-04-18T11:50:25.486Z,71.87
2023-04-18T11:51:25.475Z,71.60
2023-04-18T11:52:25.532Z,70.98
2023-04-18T11:53:25.441Z,72.62
2023-04-18T11:54:25.426Z,72.82
2023-04-18T11:55:25.566Z,72.48
2023-04-18T11:56:25.408Z,71.36
2023-04-18T11:57:25.410Z,70.75
2023-04-18T11:58:25.383Z,72.17
2023-04-18T11:59:25.351Z,70.85
2023-04-18T12:00:25.350Z,71.77
2023-04-18T12:01:25.345Z,71.06
2023-04-18T12:02:25.443Z,72.00
2023-04-18T12:03:25.626Z,73.30
2023-04-18T12:04:25.614Z,71.53
2023-04-18T12:05:25.431Z,71.30
2023-04-18T12:06:25.362Z,72.04
2023-04-18T12:07:25.249Z,68.85
2023-04-18T12:08:25.239Z,68.69
2023-04-18T12:09:25.224Z,66.66
2023-04-18T12:10:25.230Z,66.96
2023-04-18T12:11:25.197Z,66.35
2023-04-18T12:12:25.194Z,66.12
2023-04-18T12:13:25.169Z,70.08
2023-04-18T12:14:25.178Z,65.58
2023-04-18T12:15:25.141Z,67.47
2023-04-18T12:16:25.172Z,65.75
2023-04-18T12:17:25.195Z,65.75
2023-04-18T12:18:25.112Z,64.33
2023-04-18T12:19:25.099Z,66.80
2023-04-18T12:20:25.202Z,65.48
2023-04-18T12:21:25.081Z,66.90
2023-04-18T12:22:25.060Z,65.81
2023-04-18T12:23:25.048Z,66.69
2023-04-18T12:24:25.541Z,65.27
2023-04-18T12:25:27.112Z,65.78
2023-04-18T12:26:25.023Z,66.12
2023-04-18T12:27:24.984Z,68.25
2023-04-18T12:28:24.977Z,67.13
2023-04-18T12:29:24.990Z,66.58
2023-04-18T12:30:25.007Z,66.92
2023-04-18T12:31:25.013Z,68.31
2023-04-18T12:32:24.991Z,69.12
2023-04-18T12:33:24.902Z,70.82
2023-04-18T12:34:24.947Z,71.06
2023-04-18T12:35:24.878Z,68.89
2023-04-18T12:36:24.878Z,68.76
2023-04-18T12:37:24.849Z,67.24
2023-04-18T12:38:24.843Z,66.60
2023-04-18T12:39:24.832Z,65.17
2023-04-18T12:40:24.819Z,67.91
2023-04-18T12:41:24.795Z,64.70
2023-04-18T12:42:32.289Z,65.61
2023-04-18T12:43:32.297Z,68.76
2023-04-18T12:44:32.255Z,69.23
2023-04-18T12:45:24.786Z,64.20
2023-04-18T12:46:24.802Z,64.43
2023-04-18T12:47:24.720Z,67.34
2023-04-18T12:48:24.713Z,65.52
2023-04-18T12:49:24.735Z,65.21
2023-04-18T12:50:24.703Z,64.61
2023-04-18T12:51:24.667Z,65.45
2023-04-18T12:52:24.656Z,65.45
2023-04-18T12:53:24.652Z,65.07